sensor_id;sensor_type;location;lat;lon;timestamp;pressure;altitude;pressure_sealevel;temperature;humidity
14273;BME280;7220;49.450;11.052;2023-07-31T00:01:28;98132.16;;;16.69;73.54
14273;BME280;7220;49.450;11.052;2023-07-31T00:05:28;98133.94;;;16.69;73.74
14273;BME280;7220;49.450;11.052;2023-07-31T00:09:28;98123.97;;;16.71;73.67
14273;BME280;7220;49.450;11.052;2023-07-31T00:13:28;98128.34;;;16.72;73.92
14273;BME280;7220;49.450;11.052;2023-07-31T00:17:29;98117.63;;;16.72;73.47
14273;BME280;7220;49.450;11.052;2023-07-31T00:21:29;98106.88;;;16.72;73.63
14273;BME280;7220;49.450;11.052;2023-07-31T00:25:29;98115.91;;;16.71;73.21
14273;BME280;7220;49.450;11.052;2023-07-31T00:29:30;98108.34;;;16.65;73.86
14273;BME280;7220;49.450;11.052;2023-07-31T00:33:31;98106.28;;;16.68;74.26
14273;BME280;7220;49.450;11.052;2023-07-31T00:37:31;98117.13;;;16.67;73.56
14273;BME280;7220;49.450;11.052;2023-07-31T00:41:32;98125.78;;;16.70;74.18
14273;BME280;7220;49.450;11.052;2023-07-31T00:45:32;98108.09;;;16.68;73.46
14273;BME280;7220;49.450;11.052;2023-07-31T00:49:33;98102.03;;;16.66;74.00
14273;BME280;7220;49.450;11.052;2023-07-31T00:53:33;98106.38;;;16.67;74.05
14273;BME280;7220;49.450;11.052;2023-07-31T00:57:34;98104.44;;;16.69;74.04
14273;BME280;7220;49.450;11.052;2023-07-31T01:01:36;98108.34;;;16.65;74.68
14273;BME280;7220;49.450;11.052;2023-07-31T01:10:25;98100.78;;;16.70;73.90
14273;BME280;7220;49.450;11.052;2023-07-31T01:14:26;98096.91;;;16.74;74.20
14273;BME280;7220;49.450;11.052;2023-07-31T01:18:26;98092.50;;;16.73;74.71
14273;BME280;7220;49.450;11.052;2023-07-31T01:26:58;98077.25;;;16.74;74.65
14273;BME280;7220;49.450;11.052;2023-07-31T01:31:07;98091.53;;;16.74;74.87
14273;BME280;7220;49.450;11.052;2023-07-31T01:35:08;98083.47;;;16.74;74.46
14273;BME280;7220;49.450;11.052;2023-07-31T01:39:09;98092.38;;;16.75;74.54
14273;BME280;7220;49.450;11.052;2023-07-31T01:43:09;98078.22;;;16.72;74.46
14273;BME280;7220;49.450;11.052;2023-07-31T01:47:09;98076.41;;;16.73;74.71
14273;BME280;7220;49.450;11.052;2023-07-31T01:51:10;98074.56;;;16.74;75.27
14273;BME280;7220;49.450;11.052;2023-07-31T01:55:10;98072.84;;;16.72;75.19
14273;BME280;7220;49.450;11.052;2023-07-31T01:59:10;98079.91;;;16.74;75.35
14273;BME280;7220;49.450;11.052;2023-07-31T02:03:10;98072.59;;;16.76;75.51
14273;BME280;7220;49.450;11.052;2023-07-31T02:07:11;98063.31;;;16.80;74.79
14273;BME280;7220;49.450;11.052;2023-07-31T02:11:11;98040.88;;;16.81;74.87
14273;BME280;7220;49.450;11.052;2023-07-31T02:15:11;98037.94;;;16.84;75.39
14273;BME280;7220;49.450;11.052;2023-07-31T02:19:12;98042.94;;;16.88;75.22
14273;BME280;7220;49.450;11.052;2023-07-31T02:23:12;98039.03;;;16.93;75.08
14273;BME280;7220;49.450;11.052;2023-07-31T02:27:12;98031.94;;;16.92;75.02
14273;BME280;7220;49.450;11.052;2023-07-31T02:31:13;98034.28;;;16.85;75.09
14273;BME280;7220;49.450;11.052;2023-07-31T02:35:13;98029.75;;;16.85;75.70
14273;BME280;7220;49.450;11.052;2023-07-31T02:39:15;98034.00;;;16.88;76.05
14273;BME280;7220;49.450;11.052;2023-07-31T02:43:15;98030.50;;;16.87;75.30
14273;BME280;7220;49.450;11.052;2023-07-31T02:47:16;98039.38;;;16.88;75.54
14273;BME280;7220;49.450;11.052;2023-07-31T02:51:16;98032.31;;;16.87;75.60
14273;BME280;7220;49.450;11.052;2023-07-31T02:55:17;98027.81;;;16.87;75.84
14273;BME280;7220;49.450;11.052;2023-07-31T02:59:17;98044.44;;;16.81;75.79
14273;BME280;7220;49.450;11.052;2023-07-31T03:03:18;98033.09;;;16.78;75.47
14273;BME280;7220;49.450;11.052;2023-07-31T03:07:18;98034.44;;;16.72;76.79
14273;BME280;7220;49.450;11.052;2023-07-31T03:11:19;98035.66;;;16.68;76.96
14273;BME280;7220;49.450;11.052;2023-07-31T03:15:19;98025.28;;;16.63;77.06
14273;BME280;7220;49.450;11.052;2023-07-31T03:19:19;98032.75;;;16.60;77.60
14273;BME280;7220;49.450;11.052;2023-07-31T03:23:20;98033.72;;;16.59;77.82
14273;BME280;7220;49.450;11.052;2023-07-31T03:27:20;98021.31;;;16.58;77.56
14273;BME280;7220;49.450;11.052;2023-07-31T03:31:20;98022.66;;;16.52;78.30
14273;BME280;7220;49.450;11.052;2023-07-31T03:35:21;98022.78;;;16.50;77.92
14273;BME280;7220;49.450;11.052;2023-07-31T03:39:21;98019.09;;;16.51;78.29
14273;BME280;7220;49.450;11.052;2023-07-31T03:43:21;98016.69;;;16.48;78.81
14273;BME280;7220;49.450;11.052;2023-07-31T03:47:22;98023.63;;;16.39;78.66
14273;BME280;7220;49.450;11.052;2023-07-31T03:51:22;98032.53;;;16.29;79.60
14273;BME280;7220;49.450;11.052;2023-07-31T03:55:22;98014.03;;;16.14;80.38
14273;BME280;7220;49.450;11.052;2023-07-31T03:59:23;98024.28;;;16.09;80.94
14273;BME280;7220;49.450;11.052;2023-07-31T04:03:23;98026.94;;;16.09;80.97
14273;BME280;7220;49.450;11.052;2023-07-31T04:07:23;98031.22;;;16.12;81.09
14273;BME280;7220;49.450;11.052;2023-07-31T04:11:24;98032.03;;;16.12;81.90
14273;BME280;7220;49.450;11.052;2023-07-31T04:15:24;98029.97;;;16.16;81.63
14273;BME280;7220;49.450;11.052;2023-07-31T04:19:24;98017.44;;;16.16;81.39
14273;BME280;7220;49.450;11.052;2023-07-31T04:23:25;98022.53;;;16.19;80.97
14273;BME280;7220;49.450;11.052;2023-07-31T04:27:25;98029.88;;;16.17;80.58
14273;BME280;7220;49.450;11.052;2023-07-31T04:31:26;98030.47;;;16.21;81.46
14273;BME280;7220;49.450;11.052;2023-07-31T04:35:27;98025.00;;;16.22;80.95
14273;BME280;7220;49.450;11.052;2023-07-31T04:39:27;98028.78;;;16.20;80.35
14273;BME280;7220;49.450;11.052;2023-07-31T04:43:27;98018.19;;;16.18;81.01
14273;BME280;7220;49.450;11.052;2023-07-31T04:47:28;98010.47;;;16.25;80.46
14273;BME280;7220;49.450;11.052;2023-07-31T04:51:28;98004.88;;;16.28;80.17
14273;BME280;7220;49.450;11.052;2023-07-31T04:55:28;98006.94;;;16.36;80.47
14273;BME280;7220;49.450;11.052;2023-07-31T04:59:28;98007.91;;;16.35;80.04
14273;BME280;7220;49.450;11.052;2023-07-31T05:03:29;97991.72;;;16.36;80.50
14273;BME280;7220;49.450;11.052;2023-07-31T05:07:30;97990.00;;;16.35;80.53
14273;BME280;7220;49.450;11.052;2023-07-31T05:11:30;97989.38;;;16.43;79.86
14273;BME280;7220;49.450;11.052;2023-07-31T05:15:30;97997.16;;;16.46;79.29
14273;BME280;7220;49.450;11.052;2023-07-31T05:19:31;97998.66;;;16.50;79.10
14273;BME280;7220;49.450;11.052;2023-07-31T05:23:31;97984.00;;;16.54;79.06
14273;BME280;7220;49.450;11.052;2023-07-31T05:27:33;97986.06;;;16.62;78.99
14273;BME280;7220;49.450;11.052;2023-07-31T05:31:33;98004.94;;;16.72;78.60
14273;BME280;7220;49.450;11.052;2023-07-31T05:35:33;98005.38;;;16.77;77.76
14273;BME280;7220;49.450;11.052;2023-07-31T05:39:34;98000.50;;;16.82;78.01
14273;BME280;7220;49.450;11.052;2023-07-31T05:43:34;98009.16;;;16.86;77.46
14273;BME280;7220;49.450;11.052;2023-07-31T05:47:34;98006.06;;;16.91;77.32
14273;BME280;7220;49.450;11.052;2023-07-31T05:51:35;98017.53;;;17.04;76.71
14273;BME280;7220;49.450;11.052;2023-07-31T05:55:35;97999.78;;;17.13;76.13
14273;BME280;7220;49.450;11.052;2023-07-31T05:59:36;97993.53;;;17.24;75.98
14273;BME280;7220;49.450;11.052;2023-07-31T06:03:36;97983.84;;;17.32;75.83
14273;BME280;7220;49.450;11.052;2023-07-31T06:07:36;97986.34;;;17.45;75.34
14273;BME280;7220;49.450;11.052;2023-07-31T06:11:37;97985.81;;;17.52;74.89
14273;BME280;7220;49.450;11.052;2023-07-31T06:15:37;97995.03;;;17.59;74.43
14273;BME280;7220;49.450;11.052;2023-07-31T06:19:37;97992.09;;;17.62;73.31
14273;BME280;7220;49.450;11.052;2023-07-31T06:23:37;97994.25;;;17.68;73.52
14273;BME280;7220;49.450;11.052;2023-07-31T06:27:38;97997.66;;;17.70;73.79
14273;BME280;7220;49.450;11.052;2023-07-31T06:31:38;98001.19;;;17.71;72.91
14273;BME280;7220;49.450;11.052;2023-07-31T06:35:38;98005.44;;;17.73;72.66
14273;BME280;7220;49.450;11.052;2023-07-31T06:39:39;98002.28;;;17.89;72.94
14273;BME280;7220;49.450;11.052;2023-07-31T06:43:39;98004.50;;;18.05;72.41
14273;BME280;7220;49.450;11.052;2023-07-31T06:47:39;97986.28;;;18.09;71.38
14273;BME280;7220;49.450;11.052;2023-07-31T06:51:40;97990.41;;;18.13;71.25
14273;BME280;7220;49.450;11.052;2023-07-31T06:55:40;97993.28;;;18.21;70.96
14273;BME280;7220;49.450;11.052;2023-07-31T06:59:40;97987.03;;;18.21;70.40
14273;BME280;7220;49.450;11.052;2023-07-31T07:03:40;97980.97;;;18.28;70.86
14273;BME280;7220;49.450;11.052;2023-07-31T07:07:41;97995.00;;;18.32;70.11
14273;BME280;7220;49.450;11.052;2023-07-31T07:11:41;97986.13;;;18.41;69.98
14273;BME280;7220;49.450;11.052;2023-07-31T07:15:42;97989.41;;;18.55;69.90
14273;BME280;7220;49.450;11.052;2023-07-31T07:19:42;97996.06;;;18.60;69.02
14273;BME280;7220;49.450;11.052;2023-07-31T07:23:42;97991.25;;;18.74;68.72
14273;BME280;7220;49.450;11.052;2023-07-31T07:27:44;98001.47;;;18.80;68.22
14273;BME280;7220;49.450;11.052;2023-07-31T07:31:44;97992.97;;;18.85;67.52
14273;BME280;7220;49.450;11.052;2023-07-31T07:35:44;97994.13;;;18.82;67.73
14273;BME280;7220;49.450;11.052;2023-07-31T07:39:45;97999.66;;;18.90;67.54
14273;BME280;7220;49.450;11.052;2023-07-31T07:43:45;97997.69;;;19.02;67.90
14273;BME280;7220;49.450;11.052;2023-07-31T07:47:45;98009.03;;;19.06;66.34
14273;BME280;7220;49.450;11.052;2023-07-31T07:51:47;98004.66;;;19.05;65.80
14273;BME280;7220;49.450;11.052;2023-07-31T07:55:47;98005.50;;;19.05;65.79
14273;BME280;7220;49.450;11.052;2023-07-31T07:59:48;98001.53;;;19.10;65.92
14273;BME280;7220;49.450;11.052;2023-07-31T08:03:49;97988.34;;;19.26;64.59
14273;BME280;7220;49.450;11.052;2023-07-31T08:07:50;97982.50;;;19.41;65.27
14273;BME280;7220;49.450;11.052;2023-07-31T08:11:50;97988.88;;;19.59;65.14
14273;BME280;7220;49.450;11.052;2023-07-31T08:15:50;97994.94;;;19.71;63.32
14273;BME280;7220;49.450;11.052;2023-07-31T08:19:51;97992.81;;;19.75;63.56
14273;BME280;7220;49.450;11.052;2023-07-31T08:23:51;97990.13;;;19.75;63.19
14273;BME280;7220;49.450;11.052;2023-07-31T08:27:51;97996.94;;;19.79;63.38
14273;BME280;7220;49.450;11.052;2023-07-31T08:31:52;97983.41;;;19.98;62.79
14273;BME280;7220;49.450;11.052;2023-07-31T08:35:53;97959.84;;;20.00;62.33
14273;BME280;7220;49.450;11.052;2023-07-31T08:39:53;97954.28;;;20.02;62.61
14273;BME280;7220;49.450;11.052;2023-07-31T08:43:55;97947.16;;;20.11;62.87
14273;BME280;7220;49.450;11.052;2023-07-31T08:47:56;97941.94;;;20.27;62.04
14273;BME280;7220;49.450;11.052;2023-07-31T08:51:59;97934.25;;;20.32;61.00
14273;BME280;7220;49.450;11.052;2023-07-31T08:56:00;97938.56;;;20.25;61.35
14273;BME280;7220;49.450;11.052;2023-07-31T09:00:05;97931.63;;;20.23;61.78
14273;BME280;7220;49.450;11.052;2023-07-31T09:04:07;97932.19;;;20.26;62.27
14273;BME280;7220;49.450;11.052;2023-07-31T09:08:10;97944.34;;;20.30;62.30
14273;BME280;7220;49.450;11.052;2023-07-31T09:12:11;97934.44;;;20.31;61.90
14273;BME280;7220;49.450;11.052;2023-07-31T09:16:12;97947.63;;;20.52;61.92
14273;BME280;7220;49.450;11.052;2023-07-31T09:24:25;97918.63;;;20.82;59.75
14273;BME280;7220;49.450;11.052;2023-07-31T09:28:31;97917.38;;;20.94;59.57
14273;BME280;7220;49.450;11.052;2023-07-31T09:32:31;97920.56;;;21.16;58.90
14273;BME280;7220;49.450;11.052;2023-07-31T09:36:31;97930.16;;;21.28;57.86
14273;BME280;7220;49.450;11.052;2023-07-31T09:40:34;97924.78;;;21.37;57.59
14273;BME280;7220;49.450;11.052;2023-07-31T09:44:41;97917.00;;;21.34;57.57
14273;BME280;7220;49.450;11.052;2023-07-31T09:48:41;97909.34;;;21.29;58.13
14273;BME280;7220;49.450;11.052;2023-07-31T09:52:42;97908.81;;;21.25;58.42
14273;BME280;7220;49.450;11.052;2023-07-31T09:56:47;97898.72;;;21.27;58.05
14273;BME280;7220;49.450;11.052;2023-07-31T10:00:48;97901.66;;;21.34;58.02
14273;BME280;7220;49.450;11.052;2023-07-31T10:04:49;97899.06;;;21.33;57.71
14273;BME280;7220;49.450;11.052;2023-07-31T10:08:51;97894.06;;;21.38;58.12
14273;BME280;7220;49.450;11.052;2023-07-31T10:12:54;97894.41;;;21.43;58.19
14273;BME280;7220;49.450;11.052;2023-07-31T10:16:57;97884.00;;;21.56;58.63
14273;BME280;7220;49.450;11.052;2023-07-31T10:20:58;97873.44;;;21.37;61.13
14273;BME280;7220;49.450;11.052;2023-07-31T10:24:59;97883.06;;;21.13;59.68
14273;BME280;7220;49.450;11.052;2023-07-31T10:29:00;97869.94;;;21.18;58.92
14273;BME280;7220;49.450;11.052;2023-07-31T10:33:02;97858.28;;;21.44;57.55
14273;BME280;7220;49.450;11.052;2023-07-31T10:37:22;97855.63;;;21.52;56.67
14273;BME280;7220;49.450;11.052;2023-07-31T10:41:30;97846.53;;;21.88;55.58
14273;BME280;7220;49.450;11.052;2023-07-31T10:45:32;97835.25;;;22.09;55.40
14273;BME280;7220;49.450;11.052;2023-07-31T10:49:32;97833.94;;;22.30;54.51
14273;BME280;7220;49.450;11.052;2023-07-31T10:53:33;97823.00;;;22.48;54.16
14273;BME280;7220;49.450;11.052;2023-07-31T10:57:35;97817.72;;;22.30;53.21
14273;BME280;7220;49.450;11.052;2023-07-31T11:01:52;97829.00;;;22.09;53.98
14273;BME280;7220;49.450;11.052;2023-07-31T11:06:02;97819.66;;;21.86;54.70
14273;BME280;7220;49.450;11.052;2023-07-31T11:10:06;97817.91;;;21.77;55.33
14273;BME280;7220;49.450;11.052;2023-07-31T11:14:10;97821.31;;;21.87;55.50
14273;BME280;7220;49.450;11.052;2023-07-31T11:18:10;97803.09;;;21.98;55.23
14273;BME280;7220;49.450;11.052;2023-07-31T11:22:11;97801.38;;;21.88;54.86
14273;BME280;7220;49.450;11.052;2023-07-31T11:26:12;97805.78;;;21.89;55.68
14273;BME280;7220;49.450;11.052;2023-07-31T11:30:12;97806.44;;;21.83;54.41
14273;BME280;7220;49.450;11.052;2023-07-31T11:34:13;97814.66;;;21.65;53.71
14273;BME280;7220;49.450;11.052;2023-07-31T11:38:24;97812.03;;;21.55;54.35
14273;BME280;7220;49.450;11.052;2023-07-31T11:42:25;97809.59;;;21.70;54.47
14273;BME280;7220;49.450;11.052;2023-07-31T11:46:25;97813.53;;;21.84;55.03
14273;BME280;7220;49.450;11.052;2023-07-31T11:50:26;97807.13;;;21.85;54.07
14273;BME280;7220;49.450;11.052;2023-07-31T11:54:26;97790.78;;;22.12;53.77
14273;BME280;7220;49.450;11.052;2023-07-31T11:58:27;97794.25;;;22.55;52.56
14273;BME280;7220;49.450;11.052;2023-07-31T12:02:29;97794.06;;;22.40;53.33
14273;BME280;7220;49.450;11.052;2023-07-31T12:06:36;97793.00;;;22.25;53.23
14273;BME280;7220;49.450;11.052;2023-07-31T12:10:37;97785.72;;;22.25;53.74
14273;BME280;7220;49.450;11.052;2023-07-31T12:14:41;97789.69;;;22.47;53.14
14273;BME280;7220;49.450;11.052;2023-07-31T12:18:41;97794.91;;;22.74;52.45
14273;BME280;7220;49.450;11.052;2023-07-31T12:22:42;97783.06;;;22.58;52.38
14273;BME280;7220;49.450;11.052;2023-07-31T12:26:45;97786.28;;;22.45;52.53
14273;BME280;7220;49.450;11.052;2023-07-31T12:30:46;97778.16;;;22.70;51.63
14273;BME280;7220;49.450;11.052;2023-07-31T12:34:47;97771.38;;;22.99;49.94
14273;BME280;7220;49.450;11.052;2023-07-31T12:38:48;97781.19;;;22.83;51.42
14273;BME280;7220;49.450;11.052;2023-07-31T12:42:49;97761.56;;;22.90;50.36
14273;BME280;7220;49.450;11.052;2023-07-31T12:46:49;97749.88;;;22.89;50.58
14273;BME280;7220;49.450;11.052;2023-07-31T12:50:50;97754.16;;;22.67;50.46
14273;BME280;7220;49.450;11.052;2023-07-31T12:54:50;97738.03;;;22.65;50.90
14273;BME280;7220;49.450;11.052;2023-07-31T12:58:50;97736.50;;;22.88;50.56
14273;BME280;7220;49.450;11.052;2023-07-31T13:02:51;97724.97;;;22.94;50.60
14273;BME280;7220;49.450;11.052;2023-07-31T13:06:51;97731.75;;;22.98;50.98
14273;BME280;7220;49.450;11.052;2023-07-31T13:10:51;97714.50;;;22.91;50.46
14273;BME280;7220;49.450;11.052;2023-07-31T13:14:52;97725.34;;;22.91;50.37
14273;BME280;7220;49.450;11.052;2023-07-31T13:18:52;97719.88;;;23.87;47.77
14273;BME280;7220;49.450;11.052;2023-07-31T13:22:53;97710.44;;;23.74;48.00
14273;BME280;7220;49.450;11.052;2023-07-31T13:26:55;97704.97;;;24.14;47.41
14273;BME280;7220;49.450;11.052;2023-07-31T13:30:55;97698.69;;;25.20;44.69
14273;BME280;7220;49.450;11.052;2023-07-31T13:34:55;97685.16;;;25.72;43.36
14273;BME280;7220;49.450;11.052;2023-07-31T13:38:56;97676.91;;;25.50;43.96
14273;BME280;7220;49.450;11.052;2023-07-31T13:42:56;97682.09;;;25.45;43.88
14273;BME280;7220;49.450;11.052;2023-07-31T13:46:56;97667.88;;;25.64;43.85
14273;BME280;7220;49.450;11.052;2023-07-31T13:50:56;97675.06;;;26.59;41.13
14273;BME280;7220;49.450;11.052;2023-07-31T13:54:57;97659.75;;;26.29;41.54
14273;BME280;7220;49.450;11.052;2023-07-31T13:58:57;97655.75;;;26.04;42.57
14273;BME280;7220;49.450;11.052;2023-07-31T14:02:57;97654.38;;;25.56;42.97
14273;BME280;7220;49.450;11.052;2023-07-31T14:06:58;97650.03;;;25.40;43.49
14273;BME280;7220;49.450;11.052;2023-07-31T14:10:58;97647.34;;;24.95;44.30
14273;BME280;7220;49.450;11.052;2023-07-31T14:14:59;97638.84;;;24.45;45.02
14273;BME280;7220;49.450;11.052;2023-07-31T14:18:59;97648.09;;;24.36;45.28
14273;BME280;7220;49.450;11.052;2023-07-31T14:23:00;97654.16;;;24.23;44.97
14273;BME280;7220;49.450;11.052;2023-07-31T14:27:01;97643.84;;;24.18;44.90
14273;BME280;7220;49.450;11.052;2023-07-31T14:31:01;97650.63;;;23.91;45.74
14273;BME280;7220;49.450;11.052;2023-07-31T14:35:01;97650.03;;;23.81;46.87
14273;BME280;7220;49.450;11.052;2023-07-31T14:39:02;97646.06;;;23.68;47.85
14273;BME280;7220;49.450;11.052;2023-07-31T14:43:02;97645.03;;;23.69;48.11
14273;BME280;7220;49.450;11.052;2023-07-31T14:47:02;97640.91;;;23.50;47.32
14273;BME280;7220;49.450;11.052;2023-07-31T14:51:03;97630.75;;;23.21;47.74
14273;BME280;7220;49.450;11.052;2023-07-31T14:55:03;97632.84;;;22.94;48.85
14273;BME280;7220;49.450;11.052;2023-07-31T14:59:04;97646.41;;;22.85;48.88
14273;BME280;7220;49.450;11.052;2023-07-31T15:03:04;97637.31;;;22.70;49.58
14273;BME280;7220;49.450;11.052;2023-07-31T15:07:04;97627.22;;;22.56;50.35
14273;BME280;7220;49.450;11.052;2023-07-31T15:11:05;97633.34;;;22.49;50.96
14273;BME280;7220;49.450;11.052;2023-07-31T15:15:06;97637.91;;;22.41;51.40
14273;BME280;7220;49.450;11.052;2023-07-31T15:19:07;97624.34;;;22.32;52.08
14273;BME280;7220;49.450;11.052;2023-07-31T15:23:07;97608.78;;;22.26;52.00
14273;BME280;7220;49.450;11.052;2023-07-31T15:27:07;97601.53;;;22.18;52.79
14273;BME280;7220;49.450;11.052;2023-07-31T15:31:08;97599.84;;;22.17;53.08
14273;BME280;7220;49.450;11.052;2023-07-31T15:35:12;97598.50;;;22.13;53.72
14273;BME280;7220;49.450;11.052;2023-07-31T15:39:12;97594.78;;;22.14;53.46
14273;BME280;7220;49.450;11.052;2023-07-31T15:43:13;97590.72;;;22.18;53.49
14273;BME280;7220;49.450;11.052;2023-07-31T15:47:13;97587.16;;;22.18;53.72
14273;BME280;7220;49.450;11.052;2023-07-31T15:51:14;97583.75;;;22.24;54.27
14273;BME280;7220;49.450;11.052;2023-07-31T15:55:14;97571.75;;;22.27;54.20
14273;BME280;7220;49.450;11.052;2023-07-31T15:59:17;97568.38;;;22.41;53.95
14273;BME280;7220;49.450;11.052;2023-07-31T16:03:18;97569.34;;;22.57;53.77
14273;BME280;7220;49.450;11.052;2023-07-31T16:07:19;97566.19;;;22.76;53.24
14273;BME280;7220;49.450;11.052;2023-07-31T16:11:21;97554.22;;;23.02;52.33
14273;BME280;7220;49.450;11.052;2023-07-31T16:15:21;97566.53;;;23.13;51.76
14273;BME280;7220;49.450;11.052;2023-07-31T16:19:22;97548.09;;;23.08;51.28
14273;BME280;7220;49.450;11.052;2023-07-31T16:23:22;97546.97;;;23.03;51.21
14273;BME280;7220;49.450;11.052;2023-07-31T16:27:22;97547.84;;;22.95;51.32
14273;BME280;7220;49.450;11.052;2023-07-31T16:31:25;97543.47;;;22.85;51.87
14273;BME280;7220;49.450;11.052;2023-07-31T16:35:25;97533.22;;;22.73;52.58
14273;BME280;7220;49.450;11.052;2023-07-31T16:39:26;97543.75;;;22.67;53.13
14273;BME280;7220;49.450;11.052;2023-07-31T16:43:26;97539.97;;;22.77;52.80
14273;BME280;7220;49.450;11.052;2023-07-31T16:47:29;97523.72;;;22.77;52.98
14273;BME280;7220;49.450;11.052;2023-07-31T16:51:29;97521.88;;;22.69;53.54
14273;BME280;7220;49.450;11.052;2023-07-31T16:55:30;97529.03;;;22.62;53.69
14273;BME280;7220;49.450;11.052;2023-07-31T16:59:33;97525.00;;;22.58;54.10
14273;BME280;7220;49.450;11.052;2023-07-31T17:03:34;97516.53;;;22.52;54.30
14273;BME280;7220;49.450;11.052;2023-07-31T17:07:34;97519.94;;;22.46;54.85
14273;BME280;7220;49.450;11.052;2023-07-31T17:11:35;97517.06;;;22.48;55.13
14273;BME280;7220;49.450;11.052;2023-07-31T17:15:35;97519.28;;;22.44;54.91
14273;BME280;7220;49.450;11.052;2023-07-31T17:19:36;97512.19;;;22.43;55.72
14273;BME280;7220;49.450;11.052;2023-07-31T17:23:36;97513.56;;;22.39;55.86
14273;BME280;7220;49.450;11.052;2023-07-31T17:27:36;97506.44;;;22.30;56.62
14273;BME280;7220;49.450;11.052;2023-07-31T17:31:37;97519.16;;;22.21;56.76
14273;BME280;7220;49.450;11.052;2023-07-31T17:35:38;97510.22;;;22.12;56.87
14273;BME280;7220;49.450;11.052;2023-07-31T17:39:39;97517.31;;;22.05;57.52
14273;BME280;7220;49.450;11.052;2023-07-31T17:43:39;97515.66;;;21.96;57.93
14273;BME280;7220;49.450;11.052;2023-07-31T17:47:39;97515.50;;;21.89;58.57
14273;BME280;7220;49.450;11.052;2023-07-31T17:51:40;97517.34;;;21.88;58.06
14273;BME280;7220;49.450;11.052;2023-07-31T17:55:40;97508.75;;;21.85;58.45
14273;BME280;7220;49.450;11.052;2023-07-31T17:59:40;97525.47;;;21.80;58.84
14273;BME280;7220;49.450;11.052;2023-07-31T18:03:43;97525.47;;;21.72;59.00
14273;BME280;7220;49.450;11.052;2023-07-31T18:07:43;97515.03;;;21.69;59.42
14273;BME280;7220;49.450;11.052;2023-07-31T18:11:43;97529.06;;;21.64;59.98
14273;BME280;7220;49.450;11.052;2023-07-31T18:15:47;97541.38;;;21.58;59.88
14273;BME280;7220;49.450;11.052;2023-07-31T18:19:47;97536.63;;;21.52;60.24
14273;BME280;7220;49.450;11.052;2023-07-31T18:23:48;97524.13;;;21.51;60.47
14273;BME280;7220;49.450;11.052;2023-07-31T18:27:48;97530.03;;;21.47;60.46
14273;BME280;7220;49.450;11.052;2023-07-31T18:31:48;97525.13;;;21.42;60.84
14273;BME280;7220;49.450;11.052;2023-07-31T18:35:48;97516.31;;;21.40;60.54
14273;BME280;7220;49.450;11.052;2023-07-31T18:39:49;97506.69;;;21.37;61.10
14273;BME280;7220;49.450;11.052;2023-07-31T18:43:49;97512.28;;;21.36;61.49
14273;BME280;7220;49.450;11.052;2023-07-31T18:47:49;97501.16;;;21.31;61.70
14273;BME280;7220;49.450;11.052;2023-07-31T18:51:50;97492.69;;;21.25;62.01
14273;BME280;7220;49.450;11.052;2023-07-31T18:55:51;97492.69;;;21.25;62.15
14273;BME280;7220;49.450;11.052;2023-07-31T18:59:51;97477.31;;;21.18;62.40
14273;BME280;7220;49.450;11.052;2023-07-31T19:03:52;97469.84;;;21.11;62.91
14273;BME280;7220;49.450;11.052;2023-07-31T19:07:52;97470.38;;;21.07;62.86
14273;BME280;7220;49.450;11.052;2023-07-31T19:11:52;97473.09;;;21.07;63.35
14273;BME280;7220;49.450;11.052;2023-07-31T19:15:52;97473.25;;;21.05;62.99
14273;BME280;7220;49.450;11.052;2023-07-31T19:19:53;97472.22;;;21.06;63.24
14273;BME280;7220;49.450;11.052;2023-07-31T19:23:54;97492.00;;;20.99;63.63
14273;BME280;7220;49.450;11.052;2023-07-31T19:27:54;97487.56;;;20.89;65.27
14273;BME280;7220;49.450;11.052;2023-07-31T19:31:55;97497.66;;;20.79;66.82
14273;BME280;7220;49.450;11.052;2023-07-31T19:35:59;97503.50;;;20.66;68.08
14273;BME280;7220;49.450;11.052;2023-07-31T19:40:00;97508.34;;;20.54;69.86
14273;BME280;7220;49.450;11.052;2023-07-31T19:44:00;97505.59;;;20.38;71.46
14273;BME280;7220;49.450;11.052;2023-07-31T19:48:00;97510.19;;;20.19;73.45
14273;BME280;7220;49.450;11.052;2023-07-31T19:52:01;97500.72;;;20.07;74.66
14273;BME280;7220;49.450;11.052;2023-07-31T19:56:01;97499.91;;;19.88;76.93
14273;BME280;7220;49.450;11.052;2023-07-31T20:00:03;97508.56;;;19.74;78.86
14273;BME280;7220;49.450;11.052;2023-07-31T20:04:04;97502.22;;;19.57;81.13
14273;BME280;7220;49.450;11.052;2023-07-31T20:08:04;97503.75;;;19.41;82.10
14273;BME280;7220;49.450;11.052;2023-07-31T20:12:05;97505.16;;;19.27;84.40
14273;BME280;7220;49.450;11.052;2023-07-31T20:16:06;97510.75;;;19.16;86.79
14273;BME280;7220;49.450;11.052;2023-07-31T20:20:07;97523.06;;;19.00;90.90
14273;BME280;7220;49.450;11.052;2023-07-31T20:24:08;97510.25;;;18.84;92.79
14273;BME280;7220;49.450;11.052;2023-07-31T20:28:09;97516.28;;;18.68;96.34
14273;BME280;7220;49.450;11.052;2023-07-31T20:32:09;97521.34;;;18.53;97.82
14273;BME280;7220;49.450;11.052;2023-07-31T20:36:10;97512.00;;;18.20;100.00
14273;BME280;7220;49.450;11.052;2023-07-31T20:40:11;97507.69;;;17.99;100.00
14273;BME280;7220;49.450;11.052;2023-07-31T20:44:11;97505.88;;;17.80;100.00
14273;BME280;7220;49.450;11.052;2023-07-31T20:48:11;97498.84;;;17.69;100.00
14273;BME280;7220;49.450;11.052;2023-07-31T20:52:13;97471.72;;;17.53;100.00
14273;BME280;7220;49.450;11.052;2023-07-31T20:56:13;97469.16;;;17.51;100.00
14273;BME280;7220;49.450;11.052;2023-07-31T21:00:13;97463.81;;;17.41;100.00
14273;BME280;7220;49.450;11.052;2023-07-31T21:04:14;97464.13;;;17.38;100.00
14273;BME280;7220;49.450;11.052;2023-07-31T21:08:15;97451.69;;;17.37;100.00
14273;BME280;7220;49.450;11.052;2023-07-31T21:12:15;97454.63;;;17.34;100.00
14273;BME280;7220;49.450;11.052;2023-07-31T21:16:15;97457.31;;;17.34;100.00
14273;BME280;7220;49.450;11.052;2023-07-31T21:20:16;97458.63;;;17.30;100.00
14273;BME280;7220;49.450;11.052;2023-07-31T21:24:16;97448.56;;;17.32;100.00
14273;BME280;7220;49.450;11.052;2023-07-31T21:28:16;97434.44;;;17.30;100.00